createdAt,value
2019-06-26T00:00:27.617Z,98993.23
2019-06-26T00:02:55.868Z,98990.55
2019-06-26T00:05:24.224Z,98995.81
2019-06-26T00:07:52.583Z,98989.20
2019-06-26T00:10:20.821Z,98987.58
2019-06-26T00:12:48.819Z,98986.50
2019-06-26T00:15:16.957Z,98987.36
2019-06-26T00:17:44.946Z,98986.02
2019-06-26T00:20:13.148Z,98987.36
2019-06-26T00:22:41.455Z,98989.20
2019-06-26T00:25:09.690Z,98987.85
2019-06-26T00:27:38.021Z,99000.83
2019-06-26T00:30:06.103Z,98996.30
2019-06-26T00:32:34.748Z,98995.45
2019-06-26T00:35:02.715Z,98996.42
2019-06-26T00:37:31.087Z,98999.48
2019-06-26T00:39:59.722Z,99002.66
2019-06-26T00:42:27.810Z,99004.50
2019-06-26T00:44:55.798Z,99008.55
2019-06-26T00:47:23.781Z,99005.84
2019-06-26T00:49:51.779Z,99006.30
2019-06-26T00:52:19.743Z,99010.47
2019-06-26T00:54:48.046Z,99011.33
2019-06-26T00:57:16.446Z,99014.97
2019-06-26T00:59:44.783Z,99017.66
2019-06-26T01:02:13.177Z,99020.35
2019-06-26T01:04:43.794Z,99013.71
2019-06-26T01:07:12.035Z,99017.75
2019-06-26T01:09:40.084Z,99018.23
2019-06-26T01:12:07.975Z,99019.09
2019-06-26T01:14:35.958Z,99019.09
2019-06-26T01:17:04.203Z,99020.44
2019-06-26T01:19:32.571Z,99018.73
2019-06-26T01:22:00.960Z,99026.31
2019-06-26T01:24:29.642Z,99020.08
2019-06-26T01:26:57.828Z,99021.79
2019-06-26T01:29:42.748Z,99025.46
2019-06-26T01:32:10.721Z,99017.38
2019-06-26T01:34:38.752Z,99022.77
2019-06-26T01:37:06.742Z,99019.19
2019-06-26T01:39:35.090Z,99013.44
2019-06-26T01:42:03.265Z,99015.14
2019-06-26T01:44:31.144Z,99009.39
2019-06-26T01:46:59.151Z,99014.29
2019-06-26T01:49:27.490Z,99012.95
2019-06-26T01:51:55.519Z,99009.88
2019-06-26T01:54:23.466Z,99013.92
2019-06-26T01:56:51.403Z,99015.27
2019-06-26T01:59:19.761Z,99011.23
2019-06-26T02:01:47.731Z,99015.76
2019-06-26T02:04:15.886Z,99017.56
2019-06-26T02:06:44.323Z,99010.83
2019-06-26T02:09:12.399Z,99013.16
2019-06-26T02:11:40.711Z,99017.20
2019-06-26T02:14:08.915Z,99015.48
2019-06-26T02:16:37.154Z,99018.55
2019-06-26T02:19:06.171Z,99015.09
2019-06-26T02:21:34.483Z,99019.52
2019-06-26T02:24:02.491Z,99019.13
2019-06-26T02:26:31.127Z,99018.17
2019-06-26T02:28:59.411Z,99020.88
2019-06-26T02:31:27.751Z,99019.98
2019-06-26T02:33:56.718Z,99024.51
2019-06-26T02:36:24.726Z,99020.59
2019-06-26T02:38:53.034Z,99029.53
2019-06-26T02:41:21.027Z,99025.58
2019-06-26T02:43:49.346Z,99024.35
2019-06-26T02:46:17.264Z,99023.59
2019-06-26T02:48:45.301Z,99024.56
2019-06-26T02:51:13.663Z,99029.95
2019-06-26T02:53:41.564Z,99025.02
2019-06-26T02:56:09.840Z,99021.88
2019-06-26T02:58:37.836Z,99020.13
2019-06-26T03:01:06.083Z,99016.58
2019-06-26T03:03:34.133Z,99020.62
2019-06-26T03:06:02.516Z,99021.96
2019-06-26T03:08:30.571Z,99025.63
2019-06-26T03:10:59.211Z,99028.78
2019-06-26T03:13:27.475Z,99021.11
2019-06-26T03:15:59.639Z,99032.73
2019-06-26T03:18:28.045Z,99028.69
2019-06-26T03:20:56.268Z,99023.40
2019-06-26T03:23:24.285Z,99025.23
2019-06-26T03:25:52.266Z,99030.12
2019-06-26T03:28:20.830Z,99027.06
2019-06-26T03:30:48.797Z,99030.25
2019-06-26T03:33:16.813Z,99031.47
2019-06-26T03:35:45.102Z,99031.11
2019-06-26T03:38:13.440Z,99034.16
2019-06-26T03:40:41.758Z,99037.84
2019-06-26T03:43:09.713Z,99037.84
2019-06-26T03:45:38.078Z,99036.98
2019-06-26T03:48:06.290Z,99039.18
2019-06-26T03:50:34.538Z,99043.70
2019-06-26T03:53:02.882Z,99041.96
2019-06-26T03:55:31.348Z,99043.31
2019-06-26T03:57:59.322Z,99047.34
2019-06-26T04:00:34.107Z,99045.55
2019-06-26T04:03:02.325Z,99046.48
2019-06-26T04:05:30.234Z,99048.33
2019-06-26T04:07:58.921Z,99047.84
2019-06-26T04:10:27.054Z,99051.11
2019-06-26T04:12:55.022Z,99055.14
2019-06-26T04:15:23.242Z,99064.20
2019-06-26T04:17:51.189Z,99059.18
2019-06-26T04:20:19.486Z,99061.14
2019-06-26T04:22:47.851Z,99063.34
2019-06-26T04:25:15.800Z,99065.55
2019-06-26T04:27:44.429Z,99069.95
2019-06-26T04:30:12.488Z,99066.80
2019-06-26T04:32:42.338Z,99069.01
2019-06-26T04:35:10.365Z,99068.52
2019-06-26T04:37:38.359Z,99068.89
2019-06-26T04:40:07.041Z,99072.92
2019-06-26T04:42:35.406Z,99072.47
2019-06-26T04:45:03.415Z,99079.20
2019-06-26T04:47:31.766Z,99084.09
2019-06-26T04:49:59.867Z,99081.89
2019-06-26T04:52:27.759Z,99084.95
2019-06-26T04:54:55.792Z,99093.88
2019-06-26T04:57:23.736Z,99091.59
2019-06-26T04:59:51.737Z,99093.39
2019-06-26T05:02:19.709Z,99090.25
2019-06-26T05:04:47.746Z,99088.78
2019-06-26T05:07:15.708Z,99095.02
2019-06-26T05:09:43.736Z,99095.02
2019-06-26T05:12:11.909Z,99098.61
2019-06-26T05:14:40.220Z,99094.16
2019-06-26T05:17:08.264Z,99093.80
2019-06-26T05:19:37.357Z,99095.02
2019-06-26T05:22:05.438Z,99096.37
2019-06-26T05:24:33.809Z,99098.61
2019-06-26T05:27:02.443Z,99103.10
2019-06-26T05:29:30.672Z,99107.14
2019-06-26T05:31:59.240Z,99107.63
2019-06-26T05:34:27.318Z,99110.31
2019-06-26T05:36:56.227Z,99111.58
2019-06-26T05:39:24.203Z,99117.45
2019-06-26T05:41:52.192Z,99116.47
2019-06-26T05:44:20.200Z,99121.38
2019-06-26T05:46:48.440Z,99119.16
2019-06-26T05:49:16.415Z,99122.23
2019-06-26T05:51:44.461Z,99123.57
2019-06-26T05:54:12.689Z,99121.38
2019-06-26T05:56:40.696Z,99129.36
2019-06-26T05:59:08.672Z,99122.63
2019-06-26T06:01:36.583Z,99130.87
2019-06-26T06:04:04.915Z,99126.83
2019-06-26T06:06:41.523Z,99130.38
2019-06-26T06:09:04.551Z,99126.34
2019-06-26T06:11:32.614Z,99131.64
2019-06-26T06:14:00.623Z,99126.25
2019-06-26T06:16:28.844Z,99136.94
2019-06-26T06:18:56.837Z,99140.09
2019-06-26T06:21:25.090Z,99139.72
2019-06-26T06:23:53.278Z,99137.02
2019-06-26T06:26:21.313Z,99138.38
2019-06-26T06:28:49.595Z,99136.94
2019-06-26T06:31:17.512Z,99142.69
2019-06-26T06:33:45.473Z,99141.44
2019-06-26T06:36:13.965Z,99142.69
2019-06-26T06:38:42.227Z,99146.73
2019-06-26T06:41:10.503Z,99145.38
2019-06-26T06:43:38.778Z,99146.24
2019-06-26T06:46:06.753Z,99149.34
2019-06-26T06:48:35.126Z,99150.69
2019-06-26T06:51:03.138Z,99147.99
2019-06-26T06:53:31.174Z,99147.87
2019-06-26T06:55:59.180Z,99146.64
2019-06-26T06:58:30.082Z,99157.70
2019-06-26T07:00:56.788Z,99155.09
2019-06-26T07:03:24.818Z,99158.16
2019-06-26T07:05:52.807Z,99160.84
2019-06-26T07:08:21.047Z,99167.12
2019-06-26T07:10:49.138Z,99168.92
2019-06-26T07:13:17.732Z,99174.26
2019-06-26T07:15:45.739Z,99168.47
2019-06-26T07:18:14.063Z,99168.47
2019-06-26T07:20:44.568Z,99160.84
2019-06-26T07:23:12.667Z,99172.05
2019-06-26T07:25:40.698Z,99168.06
2019-06-26T07:28:09.174Z,99170.27
2019-06-26T07:30:37.645Z,99168.02
2019-06-26T07:33:06.024Z,99171.16
2019-06-26T07:35:34.455Z,99175.20
2019-06-26T07:38:02.507Z,99173.41
2019-06-26T07:40:30.712Z,99174.75
2019-06-26T07:42:58.626Z,99174.75
2019-06-26T07:45:26.644Z,99181.48
2019-06-26T07:47:55.024Z,99182.70
2019-06-26T07:50:23.323Z,99185.52
2019-06-26T07:52:51.368Z,99188.58
2019-06-26T07:55:19.604Z,99189.92
2019-06-26T07:57:47.926Z,99187.64
2019-06-26T08:00:16.524Z,99188.22
2019-06-26T08:02:44.799Z,99194.37
2019-06-26T08:05:12.973Z,99192.13
2019-06-26T08:07:41.025Z,99198.01
2019-06-26T08:10:10.471Z,99203.80
2019-06-26T08:12:38.720Z,99206.09
2019-06-26T08:15:06.755Z,99198.86
2019-06-26T08:17:34.770Z,99205.60
2019-06-26T08:20:02.962Z,99199.75
2019-06-26T08:22:31.298Z,99209.55
2019-06-26T08:24:59.299Z,99211.88
2019-06-26T08:27:27.295Z,99206.49
2019-06-26T08:29:55.647Z,99213.68
2019-06-26T08:32:25.927Z,99211.88
2019-06-26T08:34:53.537Z,99212.82
2019-06-26T08:37:21.860Z,99213.80
2019-06-26T08:39:50.113Z,99216.37
2019-06-26T08:42:18.095Z,99211.11
2019-06-26T08:44:46.081Z,99212.33
2019-06-26T08:47:14.424Z,99211.56
2019-06-26T08:49:42.663Z,99215.14
2019-06-26T08:52:11.859Z,99211.56
2019-06-26T08:54:40.064Z,99211.56
2019-06-26T08:57:08.035Z,99211.11
2019-06-26T08:59:36.323Z,99209.32
2019-06-26T09:02:04.411Z,99214.17
2019-06-26T09:04:33.397Z,99208.41
2019-06-26T09:07:01.707Z,99212.82
2019-06-26T09:09:29.922Z,99212.82
2019-06-26T09:11:59.155Z,99210.62
2019-06-26T09:14:27.525Z,99207.84
2019-06-26T09:16:55.498Z,99203.31
2019-06-26T09:19:23.486Z,99203.67
2019-06-26T09:21:51.810Z,99207.23
2019-06-26T09:24:19.781Z,99205.30
2019-06-26T09:26:47.765Z,99210.13
2019-06-26T09:29:16.378Z,99208.77
2019-06-26T09:31:45.160Z,99202.41
2019-06-26T09:34:13.276Z,99206.45
2019-06-26T09:36:41.245Z,99212.23
2019-06-26T09:39:09.409Z,99213.58
2019-06-26T09:41:37.903Z,99212.61
2019-06-26T09:44:06.148Z,99213.47
2019-06-26T09:46:34.487Z,99218.40
2019-06-26T09:49:02.462Z,99214.81
2019-06-26T09:51:30.792Z,99215.70
2019-06-26T09:53:59.048Z,99218.40
2019-06-26T09:56:27.090Z,99215.70
2019-06-26T09:58:55.095Z,99218.77
2019-06-26T10:01:23.696Z,99214.36
2019-06-26T10:03:54.761Z,99213.02
2019-06-26T10:06:23.057Z,99210.31
2019-06-26T10:08:54.178Z,99209.34
2019-06-26T10:11:21.074Z,99210.69
2019-06-26T10:13:49.074Z,99206.64
2019-06-26T10:16:17.145Z,99204.44
2019-06-26T10:18:45.135Z,99202.60
2019-06-26T10:21:13.495Z,99199.91
2019-06-26T10:23:41.474Z,99201.25
2019-06-26T10:26:09.713Z,99206.64
2019-06-26T10:28:37.955Z,99207.50
2019-06-26T10:31:05.987Z,99205.30
2019-06-26T10:33:34.058Z,99198.56
2019-06-26T10:36:02.352Z,99203.09
2019-06-26T10:38:30.434Z,99202.97
2019-06-26T10:40:58.422Z,99203.46
2019-06-26T10:43:27.077Z,99205.66
2019-06-26T10:45:55.194Z,99205.21
2019-06-26T10:48:23.385Z,99198.08
2019-06-26T10:50:58.215Z,99199.42
2019-06-26T10:53:21.556Z,99205.21
2019-06-26T10:55:49.528Z,99194.52
2019-06-26T10:58:17.546Z,99196.23
2019-06-26T11:00:45.753Z,99194.89
2019-06-26T11:03:14.225Z,99191.34
2019-06-26T11:05:42.490Z,99196.73
2019-06-26T11:08:10.768Z,99194.44
2019-06-26T11:10:38.860Z,99187.70
2019-06-26T11:13:07.028Z,99188.56
2019-06-26T11:15:35.708Z,99187.22
2019-06-26T11:18:04.035Z,99185.86
2019-06-26T11:20:31.968Z,99185.01
2019-06-26T11:22:59.956Z,99184.52
2019-06-26T11:25:28.200Z,99181.83
2019-06-26T11:27:56.595Z,99178.64
2019-06-26T11:30:25.164Z,99181.70
2019-06-26T11:32:55.732Z,99174.88
2019-06-26T11:35:23.753Z,99174.52
2019-06-26T11:37:51.811Z,99176.23
2019-06-26T11:40:20.220Z,99183.33
2019-06-26T11:42:50.112Z,99178.34
2019-06-26T11:45:18.410Z,99179.11
2019-06-26T11:47:46.402Z,99178.71
2019-06-26T11:50:14.803Z,99176.42
2019-06-26T11:52:43.202Z,99181.81
2019-06-26T11:55:11.551Z,99180.34
2019-06-26T11:57:41.872Z,99182.55
2019-06-26T12:00:13.787Z,99181.20
2019-06-26T12:02:42.601Z,99175.81
2019-06-26T12:05:12.081Z,99173.52
2019-06-26T12:07:40.244Z,99173.03
2019-06-26T12:10:08.785Z,99170.82
2019-06-26T12:12:38.948Z,99166.66
2019-06-26T12:15:07.119Z,99162.62
2019-06-26T12:17:35.499Z,99154.05
2019-06-26T12:20:17.914Z,99159.44
2019-06-26T12:22:34.384Z,99160.33
2019-06-26T12:25:02.537Z,99154.94
2019-06-26T12:27:31.665Z,99151.27
2019-06-26T12:29:59.927Z,99154.94
2019-06-26T12:32:30.235Z,99150.77
2019-06-26T12:34:58.016Z,99154.81
2019-06-26T12:37:36.906Z,99157.02
2019-06-26T12:39:59.916Z,99147.59
2019-06-26T12:42:28.228Z,99140.00
2019-06-26T12:44:56.767Z,99138.16
2019-06-26T12:47:25.147Z,99142.60
2019-06-26T12:49:53.511Z,99134.11
2019-06-26T12:52:21.948Z,99133.17
2019-06-26T12:54:50.238Z,99131.70
2019-06-26T12:57:18.273Z,99129.77
2019-06-26T12:59:56.432Z,99128.42
2019-06-26T13:02:16.097Z,99124.97
2019-06-26T13:04:45.062Z,99124.11
2019-06-26T13:07:14.114Z,99128.84
2019-06-26T13:09:42.178Z,99122.11
2019-06-26T13:12:10.513Z,99116.81
2019-06-26T13:14:38.832Z,99121.34
2019-06-26T13:17:06.800Z,99114.12
2019-06-26T13:19:34.755Z,99112.90
2019-06-26T13:22:02.775Z,99112.90
2019-06-26T13:24:30.779Z,99114.24
2019-06-26T13:26:58.729Z,99109.31
2019-06-26T13:29:27.089Z,99112.13
2019-06-26T13:31:55.281Z,99113.84
2019-06-26T13:34:23.392Z,99117.88
2019-06-26T13:36:51.723Z,99117.52
2019-06-26T13:39:19.663Z,99114.83
2019-06-26T13:41:52.602Z,99113.84
2019-06-26T13:44:21.056Z,99112.62
2019-06-26T13:46:49.151Z,99110.78
2019-06-26T13:49:17.422Z,99112.50
2019-06-26T13:51:45.852Z,99111.27
2019-06-26T13:54:13.837Z,99103.19
2019-06-26T13:56:41.808Z,99109.06
2019-06-26T13:59:10.113Z,99109.06
2019-06-26T14:01:38.140Z,99109.06
2019-06-26T14:04:06.454Z,99106.83
2019-06-26T14:06:34.490Z,99105.03
2019-06-26T14:09:02.847Z,99105.98
2019-06-26T14:11:30.816Z,99098.38
2019-06-26T14:13:59.344Z,99099.73
2019-06-26T14:16:30.755Z,99098.88
2019-06-26T14:18:58.920Z,99094.83
2019-06-26T14:21:32.490Z,99100.59
2019-06-26T14:24:10.089Z,99091.16
2019-06-26T14:26:45.278Z,99089.44
2019-06-26T14:29:20.837Z,99093.36
2019-06-26T14:31:53.621Z,99086.75
2019-06-26T14:34:27.959Z,99084.05
2019-06-26T14:36:58.602Z,99094.25
2019-06-26T14:39:32.331Z,99089.11
2019-06-26T14:42:06.958Z,99084.89
2019-06-26T14:44:36.659Z,99089.20
2019-06-26T14:47:06.447Z,99084.55
2019-06-26T14:49:34.550Z,99084.36
2019-06-26T14:52:03.349Z,99081.67
2019-06-26T14:54:31.513Z,99079.92
2019-06-26T14:56:59.473Z,99077.72
2019-06-26T14:59:27.513Z,99076.95
2019-06-26T15:01:59.857Z,99076.09
2019-06-26T15:04:35.748Z,99073.40
2019-06-26T15:07:05.818Z,99075.73
2019-06-26T15:09:34.916Z,99073.03
2019-06-26T15:12:02.841Z,99071.41
2019-06-26T15:14:30.788Z,99072.27
2019-06-26T15:16:59.013Z,99065.53
2019-06-26T15:19:27.118Z,99062.44
2019-06-26T15:21:58.737Z,99057.05
2019-06-26T15:24:24.843Z,99064.28
2019-06-26T15:26:52.789Z,99059.38
2019-06-26T15:29:21.315Z,99052.64
2019-06-26T15:31:49.309Z,99050.44
2019-06-26T15:34:17.736Z,99048.23
2019-06-26T15:36:45.946Z,99046.89
2019-06-26T15:39:14.077Z,99044.20
2019-06-26T15:41:47.862Z,99044.20
2019-06-26T15:44:16.185Z,99033.87
2019-06-26T15:46:44.603Z,99041.50
2019-06-26T15:49:12.838Z,99034.77
2019-06-26T15:51:41.077Z,99038.31
2019-06-26T15:54:09.094Z,99029.74
2019-06-26T15:56:37.377Z,99032.08
2019-06-26T15:59:05.364Z,99026.56
2019-06-26T16:01:33.346Z,99023.19
2019-06-26T16:04:01.314Z,99027.96
2019-06-26T16:06:29.471Z,99025.94
2019-06-26T16:08:57.466Z,99025.81
2019-06-26T16:11:25.561Z,99033.31
2019-06-26T16:13:53.564Z,99024.28
2019-06-26T16:16:21.645Z,99024.55
2019-06-26T16:18:55.215Z,99023.66
2019-06-26T16:21:23.689Z,99022.31
2019-06-26T16:23:51.975Z,99023.79
2019-06-26T16:26:20.205Z,99023.39
2019-06-26T16:28:48.458Z,99019.48
2019-06-26T16:31:16.518Z,99023.13
2019-06-26T16:33:45.013Z,99028.51
2019-06-26T16:36:12.990Z,99029.98
2019-06-26T16:38:40.981Z,99024.59
2019-06-26T16:41:08.929Z,99020.64
2019-06-26T16:43:37.192Z,99026.52
2019-06-26T16:46:05.432Z,99023.83
2019-06-26T16:48:34.319Z,99024.81
2019-06-26T16:51:02.520Z,99021.23
2019-06-26T16:53:30.903Z,99019.88
2019-06-26T16:55:58.875Z,99019.52
2019-06-26T16:58:27.163Z,99019.02
2019-06-26T17:00:55.350Z,99015.47
2019-06-26T17:03:23.342Z,99025.77
2019-06-26T17:05:51.449Z,99020.86
2019-06-26T17:08:19.402Z,99023.19
2019-06-26T17:10:47.581Z,99015.11
2019-06-26T17:13:16.252Z,99024.05
2019-06-26T17:15:44.359Z,99019.15
2019-06-26T17:18:12.509Z,99021.44
2019-06-26T17:20:40.896Z,99018.75
2019-06-26T17:23:57.304Z,99021.13
2019-06-26T17:26:25.677Z,99018.75
2019-06-26T17:28:54.684Z,99020.86
2019-06-26T17:31:23.278Z,99022.30
2019-06-26T17:33:51.980Z,99024.14
2019-06-26T17:36:20.535Z,99022.70
2019-06-26T17:38:48.999Z,99012.88
2019-06-26T17:41:20.551Z,99020.09
2019-06-26T17:43:49.341Z,99013.76
2019-06-26T17:46:17.704Z,99023.19
2019-06-26T17:48:46.576Z,99016.91
2019-06-26T17:51:15.359Z,99014.71
2019-06-26T17:53:44.721Z,99009.81
2019-06-26T17:56:13.183Z,99013.36
2019-06-26T17:58:41.464Z,99013.36
2019-06-26T18:01:10.232Z,99011.06
2019-06-26T18:03:42.773Z,99014.22
2019-06-26T18:06:11.367Z,99014.71
2019-06-26T18:08:39.951Z,99007.97
2019-06-26T18:11:08.418Z,99013.36
2019-06-26T18:13:36.880Z,99014.71
2019-06-26T18:16:08.177Z,99009.32
2019-06-26T18:18:42.843Z,99010.30
2019-06-26T18:21:24.308Z,99008.95
2019-06-26T18:23:53.508Z,99008.95
2019-06-26T18:26:22.009Z,99006.27
2019-06-26T18:28:53.090Z,99010.30
2019-06-26T18:31:22.452Z,99010.80
2019-06-26T18:33:51.421Z,99007.61
2019-06-26T18:36:19.646Z,99008.56
2019-06-26T18:38:50.698Z,99007.61
2019-06-26T18:41:20.671Z,99009.45
2019-06-26T18:43:49.064Z,99008.95
2019-06-26T18:46:18.031Z,99010.30
2019-06-26T18:48:48.188Z,99004.42
2019-06-26T18:51:16.461Z,99003.56
2019-06-26T18:53:53.615Z,98996.43
2019-06-26T18:56:15.724Z,99002.22
2019-06-26T18:58:44.355Z,99001.23
2019-06-26T19:01:12.791Z,99003.26
2019-06-26T19:03:41.289Z,98999.48
2019-06-26T19:06:09.842Z,98999.76
2019-06-26T19:08:38.148Z,99001.38
2019-06-26T19:11:06.375Z,99002.10
2019-06-26T19:13:34.717Z,98993.56
2019-06-26T19:16:04.655Z,99001.52
2019-06-26T19:18:34.933Z,98997.48
2019-06-26T19:21:03.250Z,98995.18
2019-06-26T19:23:31.717Z,98997.38
2019-06-26T19:26:00.532Z,99001.92
2019-06-26T19:28:28.881Z,99004.61
2019-06-26T19:30:57.191Z,99003.63
2019-06-26T19:33:26.114Z,99012.70
2019-06-26T19:35:54.832Z,99013.06
2019-06-26T19:38:23.895Z,99008.66
2019-06-26T19:40:53.325Z,99007.67
2019-06-26T19:43:21.646Z,99006.81
2019-06-26T19:45:50.846Z,99006.81
2019-06-26T19:48:19.494Z,99014.41
2019-06-26T19:50:47.929Z,99015.76
2019-06-26T19:53:17.027Z,99014.05
2019-06-26T19:55:46.147Z,99022.00
2019-06-26T19:58:14.923Z,99022.98
2019-06-26T20:00:43.773Z,99031.44
2019-06-26T20:03:16.559Z,99039.03
2019-06-26T20:05:45.287Z,99040.37
2019-06-26T20:08:14.609Z,99046.66
2019-06-26T20:10:44.315Z,99048.86
2019-06-26T20:13:13.170Z,99044.81
2019-06-26T20:15:43.210Z,99046.16
2019-06-26T20:18:13.126Z,99038.08
2019-06-26T20:20:41.587Z,99044.33
2019-06-26T20:23:10.066Z,99044.81
2019-06-26T20:25:38.824Z,99042.89
2019-06-26T20:28:07.054Z,99046.53
2019-06-26T20:30:35.585Z,99045.58
2019-06-26T20:33:05.063Z,99044.23
2019-06-26T20:35:34.430Z,99045.09
2019-06-26T20:38:04.298Z,99041.54
2019-06-26T20:40:33.171Z,99045.09
2019-06-26T20:43:01.409Z,99044.59
2019-06-26T20:45:31.735Z,99053.67
2019-06-26T20:48:00.400Z,99053.17
2019-06-26T20:50:29.310Z,99056.73
2019-06-26T20:52:58.393Z,99055.87
2019-06-26T20:55:26.706Z,99056.36
2019-06-26T20:57:55.701Z,99052.69
2019-06-26T21:00:24.599Z,99056.73
2019-06-26T21:02:54.314Z,99055.37
2019-06-26T21:05:22.998Z,99052.69
2019-06-26T21:07:51.350Z,99051.70
2019-06-26T21:10:20.701Z,99052.69
2019-06-26T21:12:48.906Z,99057.98
2019-06-26T21:15:17.763Z,99056.63
2019-06-26T21:17:46.358Z,99056.63
2019-06-26T21:20:14.620Z,99062.39
2019-06-26T21:22:43.022Z,99058.34
2019-06-26T21:25:18.728Z,99064.99
2019-06-26T21:27:42.790Z,99063.92
2019-06-26T21:30:11.401Z,99063.92
2019-06-26T21:32:40.156Z,99066.48
2019-06-26T21:35:08.768Z,99062.44
2019-06-26T21:37:37.366Z,99064.16
2019-06-26T21:40:06.235Z,99062.35
2019-06-26T21:42:36.629Z,99061.73
2019-06-26T21:45:05.411Z,99058.18
2019-06-26T21:47:34.246Z,99059.03
2019-06-26T21:50:03.825Z,99058.95
2019-06-26T21:52:32.319Z,99057.59
2019-06-26T21:55:00.702Z,99060.66
2019-06-26T21:57:28.861Z,99062.50
2019-06-26T21:59:57.892Z,99063.75
2019-06-26T22:02:27.114Z,99062.41
2019-06-26T22:04:56.004Z,99061.91
2019-06-26T22:07:24.371Z,99060.06
2019-06-26T22:09:53.593Z,99063.16
2019-06-26T22:12:22.017Z,99067.20
2019-06-26T22:14:50.601Z,99067.08
2019-06-26T22:17:19.470Z,99070.27
2019-06-26T22:19:47.863Z,99074.68
2019-06-26T22:22:16.638Z,99069.72
2019-06-26T22:24:45.456Z,99068.37
2019-06-26T22:27:14.678Z,99065.67
2019-06-26T22:29:44.681Z,99067.02
2019-06-26T22:32:16.801Z,99068.37
2019-06-26T22:34:51.251Z,99066.53
2019-06-26T22:37:20.469Z,99056.11
2019-06-26T22:39:49.425Z,99062.39
2019-06-26T22:42:18.176Z,99055.65
2019-06-26T22:44:46.346Z,99056.50
2019-06-26T22:47:14.660Z,99052.95
2019-06-26T22:49:43.495Z,99050.63
2019-06-26T22:52:11.865Z,99056.37
2019-06-26T22:54:40.457Z,99053.31
2019-06-26T22:57:09.493Z,99056.37
2019-06-26T22:59:37.896Z,99056.77
2019-06-26T23:02:06.323Z,99053.22
2019-06-26T23:04:34.511Z,99059.47
2019-06-26T23:07:02.831Z,99062.17
2019-06-26T23:09:31.698Z,99067.06
2019-06-26T23:12:00.301Z,99064.87
2019-06-26T23:14:29.736Z,99072.09
2019-06-26T23:16:58.005Z,99076.02
2019-06-26T23:19:26.391Z,99075.65
2019-06-26T23:21:54.764Z,99072.95
2019-06-26T23:24:23.041Z,99073.31
2019-06-26T23:26:51.401Z,99067.56
2019-06-26T23:29:20.047Z,99070.25
2019-06-26T23:31:48.767Z,99073.31
2019-06-26T23:34:23.858Z,99066.58
2019-06-26T23:36:52.048Z,99069.27
2019-06-26T23:39:20.733Z,99071.97
2019-06-26T23:41:51.042Z,99069.77
2019-06-26T23:44:20.572Z,99073.45
2019-06-26T23:46:48.826Z,99065.81
2019-06-26T23:49:17.287Z,99068.05
2019-06-26T23:51:46.337Z,99063.02
2019-06-26T23:54:14.705Z,99060.81
2019-06-26T23:56:43.585Z,99058.62
2019-06-26T23:59:13.636Z,99056.77
